Ana Sayfa
METAR-TAF:

METAR-TAF

Havaalanları :

Clark Field Municipal Airport

Stephenville, Teksas, Amerika Birleşik Devletleri

Enlem: 32-13N, Boylam: 098-11W, yükseklik: 403 m

Güncel hava durumu gözlemi

Rapor saat 15:55 UTC de 26 dakika önce yapıldı.
Rüzgar güneybatıdan 9 kt
Sıcaklık 30°C
Nem 66%
Basınç 1016 hPa
Görüş mesafesi: 16.1 km
2600 ft yükseklikte parçalı bulutlu
3300 ft yükseklikte parçalı bulutlu
3900 ft yükseklikte parçalı çok bulutlu

METAR: KSEP 251555Z AUTO 22009KT 10SM SCT026 SCT033 BKN039 30/23 A2999 RMK AO2 T03030227

Saat: 11:21 (16:21 UTC)


TAF: eksik

4.000'den fazla havaalanı için hava durumu gözlemleri ve tahminleri (METAR ve TAF raporları).

Kullanılabilir istasyonlar harita üzerinde sarı ve kırmızı noktalarla gösterilir.

İstasyonun adını görmek için fareyi noktanın üzerinde gezdirin.

Sonrasında hava gözlem ve tahminlerini görmek için tıklayın.

Haritayı değiştirmek için: yaklaştırmak için siyah artı işaretli yeşil düğmeye ve uzaklaştırmak için de eksi işaretli düğmeye hızla tıklayın; bitişik haritalar için yeşil okları kullanın.


METAR-TAF: